Domov               UVHVVR             MKGP            O straneh              
ZDRAVSTVENO VARSTVO RASTLIN
  MREŽA AGROMET. POSTAJ
 ► PROGNOSTIČNA OBVESTILA
AGROMETEOROLOŠKI PODATKI -
ARSO
OBVLADOVANJE TVEGANJ ZARADI
NEUGODNIH VREMENSKIH RAZMER
  ► NARAVNE NESREČE
  ► SUŠA/MOČA
  ► NAMAKANJE
  ► ŽLED (gozdarstvo)
KARTOGRAFSKI PRIKAZI
SPLETNE POVEZAVE
PROJEKTI IN PUBLIKACIJE

AGROMETEOROLOŠKA MREŽA: VREMENSKE POSTAJE IN FENOLOŠKA OPAZOVANJA

Pregled podatkov za lokacijo Pohorski dvor, meteorološka postaja 27262

Pregled senzorjev na lokaciji

ID Ime Zadnja
vrednost
Datum
zadnje
spremembe
Tip
senzorja
959 Relativna vlaga 2 m (% RH) 65,68 % RH 19.8.2017 01:16 Generic 0 - 100 %
960 Omočenost lista (U) 0 U 19.8.2017 01:16 A730WET
961 Padavine 0.2 mm (mm) 0 mm 19.8.2017 01:30 Generic
963 Temperatura 2 m ( °C) 20,38 °C 19.8.2017 01:16 Generic -40 - +60 °C

Pregled podatkov zadnjih 24 ur

Zap.
št.
Datum in čas Pohorski dvor
Omočenost
lista
Padavine
0.2
mm
Relativna
vlaga
2
m
Temperatura
2
m
0 19.8.2017 00:30 0 0 65,68 20,38
1 19.8.2017 00:00 0 0 70,42 19,73
2 18.8.2017 23:30 0 0 65,88 20,84
3 18.8.2017 23:00 0 0 56,47 22,9
4 18.8.2017 22:30 0 0 56,98 22,85
5 18.8.2017 22:00 0 0 60,04 22,2
6 18.8.2017 21:30 0 0 65,41 21,48
7 18.8.2017 21:00 0 0 63,64 21,77
8 18.8.2017 20:30 0 0 62,38 22,04
9 18.8.2017 20:00 0 0 64,19 21,93
10 18.8.2017 19:30 0 0 63,02 23,04
11 18.8.2017 19:00 0 0 58,41 23,98
12 18.8.2017 18:30 0 0 54,53 25,25
13 18.8.2017 18:00 0 0 43,01 28,75
14 18.8.2017 17:30 0 0 37,27 29,42
15 18.8.2017 17:00 0 0 37,39 30,12
16 18.8.2017 16:30 0 0 37,14 30,43
17 18.8.2017 16:00 0 0 36,56 30,66
18 18.8.2017 15:30 0 0 35,95 30,87
19 18.8.2017 15:00 0 0 36,09 30,81
20 18.8.2017 14:30 0 0 36,69 30,71
21 18.8.2017 14:00 0 0 37,15 30,78
22 18.8.2017 13:30 0 0 38,28 30,56
23 18.8.2017 13:00 0 0 39,35 30,36
24 18.8.2017 12:30 0 0 38,74 30,34
25 18.8.2017 12:00 0 0 40,59 29,85
26 18.8.2017 11:30 0 0 43,15 29,1
27 18.8.2017 11:00 0 0 43,86 29,12
28 18.8.2017 10:30 0 0 50,06 28,75
29 18.8.2017 10:00 0 0 58,84 26,09
30 18.8.2017 09:30 0 0 58,36 25,11
31 18.8.2017 09:00 0 0 59,88 24,62
32 18.8.2017 08:30 0 0 64,17 23,61
33 18.8.2017 08:00 0 0 68,01 22,56
34 18.8.2017 07:30 0 0 74,25 21,41
35 18.8.2017 07:00 3,73 0 77,26 20,63
36 18.8.2017 06:30 10 0 84,54 19,85
37 18.8.2017 06:00 10 0 90,86 17,31
38 18.8.2017 05:30 10 0 91,07 15,58
39 18.8.2017 05:00 10 0 90,93 15,62
40 18.8.2017 04:30 10 0 90,92 15,67
41 18.8.2017 04:00 9,63 0 90,79 15,69
© 2011 Ministrstvo za kmetijstvo, gozdarstvo in prehrano. Vse pravice pridržane.